createdAt,value
2022-09-23T00:02:06.552Z,82.28
2022-09-23T00:04:33.182Z,82.61
2022-09-23T00:06:59.653Z,82.56
2022-09-23T00:09:26.145Z,82.29
2022-09-23T00:11:52.610Z,82.59
2022-09-23T00:14:19.091Z,82.58
2022-09-23T00:16:45.611Z,82.49
2022-09-23T00:19:12.129Z,82.47
2022-09-23T00:21:38.609Z,82.41
2022-09-23T00:24:05.321Z,82.36
2022-09-23T00:26:31.846Z,82.62
2022-09-23T00:28:58.419Z,82.34
2022-09-23T00:31:27.312Z,82.80
2022-09-23T00:33:56.701Z,82.58
2022-09-23T00:36:23.860Z,82.49
2022-09-23T00:38:50.373Z,82.60
2022-09-23T00:41:17.188Z,82.77
2022-09-23T00:43:52.213Z,82.53
2022-09-23T00:46:23.463Z,82.25
2022-09-23T00:48:55.360Z,82.44
2022-09-23T00:51:24.823Z,82.47
2022-09-23T00:53:53.455Z,82.31
2022-09-23T00:56:23.018Z,82.75
2022-09-23T00:58:51.778Z,82.51
2022-09-23T01:01:19.815Z,82.69
2022-09-23T01:03:46.721Z,82.70
2022-09-23T01:06:13.894Z,82.71
2022-09-23T01:08:44.205Z,82.51
2022-09-23T01:11:28.114Z,82.47
2022-09-23T01:14:13.308Z,82.65
2022-09-23T01:16:54.574Z,82.90
2022-09-23T01:19:36.500Z,82.82
2022-09-23T01:22:13.391Z,82.39
2022-09-23T01:25:13.153Z,82.38
2022-09-23T01:27:47.575Z,82.42
2022-09-23T01:30:38.695Z,82.15
2022-09-23T01:33:06.210Z,82.42
2022-09-23T01:35:52.285Z,82.08
2022-09-23T01:38:36.268Z,82.54
2022-09-23T01:41:16.255Z,82.58
2022-09-23T01:43:46.744Z,82.45
2022-09-23T01:46:27.980Z,82.28
2022-09-23T01:49:03.983Z,82.16
2022-09-23T01:51:37.462Z,82.33
2022-09-23T01:54:19.922Z,82.46
2022-09-23T01:56:54.645Z,82.27
2022-09-23T01:59:27.891Z,82.31
2022-09-23T02:02:02.989Z,82.67
2022-09-23T02:04:39.842Z,82.71
2022-09-23T02:07:21.392Z,82.69
2022-09-23T02:09:56.188Z,82.40
2022-09-23T02:12:29.513Z,82.75
2022-09-23T02:15:06.356Z,82.26
2022-09-23T02:17:40.171Z,82.20
2022-09-23T02:20:08.589Z,82.50
2022-09-23T02:22:41.163Z,82.38
2022-09-23T02:25:10.641Z,82.68
2022-09-23T02:27:41.323Z,82.07
2022-09-23T02:30:12.982Z,82.28
2022-09-23T02:32:51.894Z,82.37
2022-09-23T02:35:32.861Z,82.29
2022-09-23T02:38:18.755Z,82.09
2022-09-23T02:40:46.213Z,82.30
2022-09-23T02:43:19.882Z,82.32
2022-09-23T02:45:47.384Z,82.10
2022-09-23T02:48:19.415Z,82.00
2022-09-23T02:50:47.705Z,82.34
2022-09-23T02:53:16.170Z,82.20
2022-09-23T02:55:42.991Z,82.03
2022-09-23T02:58:12.888Z,82.34
2022-09-23T03:00:57.401Z,81.93
2022-09-23T03:04:05.307Z,81.93
2022-09-23T03:06:44.605Z,82.10
2022-09-23T03:09:21.584Z,82.32
2022-09-23T03:11:53.198Z,81.69
2022-09-23T03:14:22.673Z,81.84
2022-09-23T03:17:04.694Z,82.09
2022-09-23T03:19:38.093Z,81.77
2022-09-23T03:22:27.671Z,81.92
2022-09-23T03:24:58.590Z,82.04
2022-09-23T03:27:30.104Z,81.96
2022-09-23T03:29:57.552Z,82.45
2022-09-23T03:32:27.970Z,82.34
2022-09-23T03:34:58.340Z,82.33
2022-09-23T03:37:32.429Z,82.28
2022-09-23T03:40:09.345Z,82.73
2022-09-23T03:42:38.170Z,82.55
2022-09-23T03:45:10.583Z,82.69
2022-09-23T03:47:39.337Z,82.75
2022-09-23T03:50:06.426Z,82.89
2022-09-23T03:52:32.883Z,83.08
2022-09-23T03:54:59.453Z,82.84
2022-09-23T03:57:26.094Z,83.05
2022-09-23T03:59:52.916Z,83.40
2022-09-23T04:02:20.548Z,83.01
2022-09-23T04:04:47.308Z,83.14
2022-09-23T04:07:14.747Z,82.88
2022-09-23T04:09:41.632Z,82.43
2022-09-23T04:12:11.719Z,82.80
2022-09-23T04:14:38.382Z,82.79
2022-09-23T04:17:05.049Z,82.75
2022-09-23T04:19:31.526Z,82.68
2022-09-23T04:21:58.092Z,83.00
2022-09-23T04:24:24.671Z,82.46
2022-09-23T04:26:53.476Z,82.24
2022-09-23T04:29:20.625Z,82.39
2022-09-23T04:31:47.807Z,82.67
2022-09-23T04:34:15.954Z,82.53
2022-09-23T04:36:42.828Z,83.04
2022-09-23T04:39:09.327Z,82.84
2022-09-23T04:41:35.904Z,82.88
2022-09-23T04:44:02.838Z,83.22
2022-09-23T04:46:29.472Z,82.60
2022-09-23T04:48:55.957Z,82.63
2022-09-23T04:51:24.852Z,82.81
2022-09-23T04:53:53.116Z,83.34
2022-09-23T04:56:22.742Z,83.00
2022-09-23T04:58:50.737Z,83.26
2022-09-23T05:01:25.690Z,83.33
2022-09-23T05:03:54.359Z,83.23
2022-09-23T05:06:22.020Z,83.37
2022-09-23T05:08:51.056Z,83.79
2022-09-23T05:11:18.724Z,83.68
2022-09-23T05:13:50.497Z,83.88
2022-09-23T05:16:17.805Z,83.82
2022-09-23T05:18:45.903Z,83.74
2022-09-23T05:21:14.261Z,84.06
2022-09-23T05:23:41.987Z,84.22
2022-09-23T05:26:11.181Z,84.33
2022-09-23T05:28:39.340Z,84.35
2022-09-23T05:31:08.746Z,84.06
2022-09-23T05:33:37.005Z,84.32
2022-09-23T05:36:04.143Z,84.56
2022-09-23T05:38:31.763Z,84.45
2022-09-23T05:41:00.253Z,84.57
2022-09-23T05:43:27.416Z,84.66
2022-09-23T05:46:07.745Z,84.73
2022-09-23T05:48:35.910Z,84.63
2022-09-23T05:51:03.026Z,85.28
2022-09-23T05:53:31.736Z,85.19
2022-09-23T05:55:58.322Z,85.33
2022-09-23T05:58:25.468Z,85.25
2022-09-23T06:00:52.353Z,85.49
2022-09-23T06:03:20.613Z,85.19
2022-09-23T06:05:48.466Z,84.90
2022-09-23T06:08:15.457Z,85.53
2022-09-23T06:10:44.646Z,85.41
2022-09-23T06:13:11.583Z,85.31
2022-09-23T06:15:39.302Z,85.42
2022-09-23T06:18:06.617Z,85.55
2022-09-23T06:20:35.478Z,85.45
2022-09-23T06:23:08.810Z,85.39
2022-09-23T06:25:39.434Z,85.71
2022-09-23T06:28:11.301Z,85.58
2022-09-23T06:30:39.356Z,85.93
2022-09-23T06:33:05.853Z,85.78
2022-09-23T06:35:33.374Z,85.74
2022-09-23T06:38:03.828Z,85.68
2022-09-23T06:40:31.382Z,85.91
2022-09-23T06:43:00.986Z,85.91
2022-09-23T06:45:28.613Z,86.13
2022-09-23T06:47:56.768Z,86.39
2022-09-23T06:50:26.364Z,86.36
2022-09-23T06:52:56.082Z,85.95
2022-09-23T06:55:24.865Z,86.30
2022-09-23T06:57:51.437Z,86.29
2022-09-23T07:00:18.398Z,86.39
2022-09-23T07:02:45.198Z,86.39
2022-09-23T07:05:12.216Z,86.64
2022-09-23T07:07:39.423Z,86.37
2022-09-23T07:10:06.808Z,86.21
2022-09-23T07:12:34.221Z,86.35
2022-09-23T07:15:01.017Z,86.21
2022-09-23T07:17:27.907Z,86.34
2022-09-23T07:19:55.051Z,86.18
2022-09-23T07:22:23.357Z,85.88
2022-09-23T07:24:49.948Z,86.13
2022-09-23T07:27:19.399Z,86.18
2022-09-23T07:29:48.987Z,85.89
2022-09-23T07:32:16.699Z,85.44
2022-09-23T07:34:43.339Z,85.31
2022-09-23T07:37:10.661Z,85.03
2022-09-23T07:39:37.457Z,84.68
2022-09-23T07:42:05.294Z,84.89
2022-09-23T07:44:33.034Z,85.10
2022-09-23T07:47:00.419Z,85.15
2022-09-23T07:49:27.706Z,85.04
2022-09-23T07:51:54.265Z,84.65
2022-09-23T07:54:21.538Z,84.48
2022-09-23T07:56:48.209Z,84.36
2022-09-23T07:59:18.231Z,84.11
2022-09-23T08:01:48.477Z,83.89
2022-09-23T08:04:23.015Z,83.25
2022-09-23T08:06:55.100Z,82.86
2022-09-23T08:09:25.250Z,81.16
2022-09-23T08:11:52.530Z,81.41
2022-09-23T08:14:19.333Z,82.13
2022-09-23T08:16:47.194Z,82.04
2022-09-23T08:19:14.663Z,81.86
2022-09-23T08:21:41.996Z,82.21
2022-09-23T08:24:12.621Z,82.72
2022-09-23T08:26:39.175Z,81.59
2022-09-23T08:29:06.867Z,80.98
2022-09-23T08:31:33.493Z,81.57
2022-09-23T08:34:00.208Z,80.86
2022-09-23T08:36:27.187Z,80.83
2022-09-23T08:38:55.310Z,81.36
2022-09-23T08:41:28.049Z,81.48
2022-09-23T08:43:59.402Z,81.90
2022-09-23T08:46:31.849Z,80.90
2022-09-23T08:49:00.412Z,81.35
2022-09-23T08:51:44.744Z,80.36
2022-09-23T08:54:12.789Z,80.02
2022-09-23T08:56:43.581Z,80.63
2022-09-23T08:59:21.258Z,81.16
2022-09-23T09:01:56.996Z,80.42
2022-09-23T09:04:46.097Z,79.67
2022-09-23T09:10:14.543Z,78.49
2022-09-23T09:12:49.382Z,79.02
2022-09-23T09:15:24.637Z,78.51
2022-09-23T09:18:08.033Z,79.57
2022-09-23T09:20:40.214Z,78.41
2022-09-23T09:23:21.601Z,78.25
2022-09-23T09:25:50.923Z,77.63
2022-09-23T09:28:31.092Z,77.15
2022-09-23T09:31:01.609Z,77.40
2022-09-23T09:33:38.335Z,77.28
2022-09-23T09:36:20.877Z,77.29
2022-09-23T09:38:47.408Z,76.73
2022-09-23T09:41:17.861Z,76.28
2022-09-23T09:43:56.358Z,75.45
2022-09-23T09:46:24.951Z,75.40
2022-09-23T09:48:53.665Z,75.27
2022-09-23T09:51:22.490Z,75.15
2022-09-23T09:53:52.135Z,75.42
2022-09-23T09:56:26.840Z,75.21
2022-09-23T09:58:58.703Z,75.66
2022-09-23T10:01:28.873Z,75.91
2022-09-23T10:03:59.501Z,75.70
2022-09-23T10:06:32.591Z,74.05
2022-09-23T10:09:03.314Z,74.39
2022-09-23T10:11:31.082Z,73.74
2022-09-23T10:14:01.121Z,73.89
2022-09-23T10:16:31.620Z,73.29
2022-09-23T10:19:00.410Z,73.29
2022-09-23T10:21:34.761Z,72.95
2022-09-23T10:24:05.616Z,71.78
2022-09-23T10:26:42.624Z,73.28
2022-09-23T10:29:24.274Z,72.34
2022-09-23T10:32:22.611Z,71.81
2022-09-23T10:35:08.994Z,72.50
2022-09-23T10:38:33.611Z,73.14
2022-09-23T10:41:20.840Z,71.62
2022-09-23T10:44:11.662Z,72.39
2022-09-23T10:46:47.147Z,71.78
2022-09-23T10:49:41.170Z,71.44
2022-09-23T10:52:15.044Z,70.62
2022-09-23T10:55:00.908Z,71.13
2022-09-23T10:57:46.996Z,71.19
2022-09-23T11:00:22.228Z,70.15
2022-09-23T11:03:00.307Z,70.46
2022-09-23T11:05:41.416Z,70.34
2022-09-23T11:08:36.394Z,70.95
2022-09-23T11:11:18.880Z,71.24
2022-09-23T11:14:08.106Z,71.78
2022-09-23T11:16:43.086Z,71.25
2022-09-23T11:19:26.387Z,71.48
2022-09-23T11:21:56.145Z,71.26
2022-09-23T11:24:58.624Z,71.50
2022-09-23T11:27:47.128Z,70.87
2022-09-23T11:30:20.160Z,72.26
2022-09-23T11:35:47.729Z,70.16
2022-09-23T11:38:21.411Z,70.14
2022-09-23T11:40:54.771Z,69.61
2022-09-23T11:43:29.229Z,69.50
2022-09-23T11:46:10.548Z,69.80
2022-09-23T11:48:45.755Z,69.96
2022-09-23T11:51:17.958Z,69.86
2022-09-23T11:53:47.373Z,69.42
2022-09-23T11:56:35.496Z,69.82
2022-09-23T11:59:36.123Z,69.39
2022-09-23T12:02:20.747Z,69.05
2022-09-23T12:04:58.648Z,68.75
2022-09-23T12:07:44.527Z,68.19
2022-09-23T12:10:11.983Z,68.25
2022-09-23T12:12:58.404Z,68.12
2022-09-23T12:15:37.407Z,67.20
2022-09-23T12:18:11.473Z,67.69
2022-09-23T12:21:02.896Z,68.91
2022-09-23T12:23:41.835Z,69.09
2022-09-23T12:26:17.271Z,68.56
2022-09-23T12:28:49.032Z,68.14
2022-09-23T12:31:21.911Z,67.92
2022-09-23T12:33:55.147Z,67.76
2022-09-23T12:36:29.784Z,67.83
2022-09-23T12:39:16.270Z,66.73
2022-09-23T12:41:46.349Z,67.05
2022-09-23T12:44:14.788Z,69.24
2022-09-23T12:46:43.725Z,67.00
2022-09-23T12:49:30.068Z,67.65
2022-09-23T12:52:27.056Z,68.17
2022-09-23T12:55:19.036Z,66.85
2022-09-23T12:57:45.690Z,67.87
2022-09-23T13:00:13.535Z,65.76
2022-09-23T13:03:10.759Z,66.41
2022-09-23T13:06:09.263Z,66.63
2022-09-23T13:08:39.083Z,65.64
2022-09-23T13:11:14.889Z,67.49
2022-09-23T13:13:44.654Z,65.80
2022-09-23T13:16:29.295Z,63.34
2022-09-23T13:19:03.338Z,62.99
2022-09-23T13:21:43.079Z,63.07
2022-09-23T13:24:13.693Z,62.84
2022-09-23T13:26:45.789Z,64.56
2022-09-23T13:29:20.711Z,64.87
2022-09-23T13:31:47.762Z,65.69
2022-09-23T13:34:19.633Z,66.78
2022-09-23T13:36:48.128Z,66.21
2022-09-23T13:39:22.601Z,67.08
2022-09-23T13:41:51.905Z,66.86
2022-09-23T13:44:20.179Z,65.40
2022-09-23T13:46:51.450Z,68.26
2022-09-23T13:49:24.402Z,68.86
2022-09-23T13:51:53.482Z,68.27
2022-09-23T13:54:33.441Z,67.03
2022-09-23T13:57:00.548Z,66.81
2022-09-23T13:59:30.239Z,65.78
2022-09-23T14:02:06.863Z,65.38
2022-09-23T14:04:33.524Z,66.03
2022-09-23T14:07:01.505Z,65.47
2022-09-23T14:09:30.328Z,65.40
2022-09-23T14:11:59.677Z,63.38
2022-09-23T14:14:28.152Z,64.37
2022-09-23T14:16:56.149Z,64.90
2022-09-23T14:19:24.859Z,65.07
2022-09-23T14:21:53.741Z,65.92
2022-09-23T14:24:30.464Z,66.23
2022-09-23T14:27:10.900Z,65.95
2022-09-23T14:29:40.488Z,65.28
2022-09-23T14:32:13.473Z,65.33
2022-09-23T14:34:43.949Z,66.31
2022-09-23T14:37:42.636Z,65.09
2022-09-23T14:40:19.023Z,65.79
2022-09-23T14:42:51.434Z,66.23
2022-09-23T14:45:24.637Z,66.63
2022-09-23T14:47:58.033Z,67.59
2022-09-23T14:50:37.127Z,66.71
2022-09-23T14:53:04.736Z,68.65
2022-09-23T14:55:31.520Z,69.46
2022-09-23T14:58:05.159Z,69.43
2022-09-23T15:00:32.151Z,69.65
2022-09-23T15:03:02.702Z,69.65
2022-09-23T15:05:40.246Z,70.33
2022-09-23T15:08:07.398Z,70.45
2022-09-23T15:10:37.582Z,70.85
2022-09-23T15:13:11.534Z,71.44
2022-09-23T15:15:38.297Z,69.85
2022-09-23T15:18:11.332Z,71.54
2022-09-23T15:20:37.990Z,71.61
2022-09-23T15:23:04.562Z,72.62
2022-09-23T15:25:40.273Z,73.01
2022-09-23T15:28:10.671Z,73.03
2022-09-23T15:30:39.041Z,74.03
2022-09-23T15:33:06.392Z,74.15
2022-09-23T15:35:33.403Z,73.59
2022-09-23T15:38:02.760Z,74.79
2022-09-23T15:40:33.805Z,75.40
2022-09-23T15:43:07.625Z,75.54
2022-09-23T15:45:38.431Z,75.38
2022-09-23T15:48:10.753Z,75.61
2022-09-23T15:50:38.080Z,76.14
2022-09-23T15:53:07.286Z,76.15
2022-09-23T15:55:35.965Z,75.84
2022-09-23T15:58:03.143Z,76.69
2022-09-23T16:00:30.606Z,76.88
2022-09-23T16:02:57.234Z,77.83
2022-09-23T16:05:33.143Z,78.84
2022-09-23T16:08:03.727Z,78.72
2022-09-23T16:10:34.081Z,79.19
2022-09-23T16:13:03.026Z,79.60
2022-09-23T16:15:31.808Z,80.25
2022-09-23T16:20:50.262Z,81.18
2022-09-23T16:23:34.459Z,81.53
2022-09-23T16:26:21.804Z,81.10
2022-09-23T16:28:50.017Z,81.58
2022-09-23T16:31:16.637Z,82.07
2022-09-23T16:33:44.307Z,82.01
2022-09-23T16:36:31.969Z,81.86
2022-09-23T16:39:01.594Z,82.27
2022-09-23T16:41:29.748Z,82.56
2022-09-23T16:43:56.892Z,82.72
2022-09-23T16:46:24.890Z,83.02
2022-09-23T16:48:53.770Z,83.04
2022-09-23T16:51:23.894Z,83.44
2022-09-23T16:53:52.549Z,84.01
2022-09-23T16:56:25.810Z,84.08
2022-09-23T16:58:55.773Z,83.93
2022-09-23T17:01:44.319Z,84.28
2022-09-23T17:04:12.069Z,84.74
2022-09-23T17:07:02.731Z,85.11
2022-09-23T17:09:30.397Z,85.16
2022-09-23T17:12:09.357Z,85.47
2022-09-23T17:14:35.877Z,85.53
2022-09-23T17:17:02.457Z,85.87
2022-09-23T17:19:29.347Z,86.01
2022-09-23T17:21:56.360Z,86.13
2022-09-23T17:24:24.082Z,86.22
2022-09-23T17:26:53.381Z,86.29
2022-09-23T17:29:20.489Z,86.87
2022-09-23T17:31:47.221Z,86.77
2022-09-23T17:34:13.921Z,87.03
2022-09-23T17:36:40.616Z,87.10
2022-09-23T17:39:07.491Z,86.85
2022-09-23T17:41:34.203Z,87.29
2022-09-23T17:44:00.990Z,87.20
2022-09-23T17:46:30.091Z,87.22
2022-09-23T17:48:57.200Z,87.53
2022-09-23T17:51:25.347Z,87.63
2022-09-23T17:53:52.301Z,87.37
2022-09-23T17:56:26.556Z,87.80
2022-09-23T17:58:53.889Z,87.65
2022-09-23T18:01:23.952Z,87.92
2022-09-23T18:03:56.363Z,87.79
2022-09-23T18:06:25.653Z,88.00
2022-09-23T18:08:52.727Z,88.19
2022-09-23T18:11:21.177Z,88.06
2022-09-23T18:13:51.172Z,88.11
2022-09-23T18:16:18.351Z,88.40
2022-09-23T18:18:50.238Z,88.00
2022-09-23T18:21:16.878Z,87.87
2022-09-23T18:23:43.434Z,88.45
2022-09-23T18:26:15.419Z,88.30
2022-09-23T18:28:43.121Z,88.44
2022-09-23T18:31:10.844Z,88.29
2022-09-23T18:33:39.227Z,88.58
2022-09-23T18:36:06.211Z,88.32
2022-09-23T18:38:33.335Z,88.54
2022-09-23T18:41:00.560Z,88.61
2022-09-23T18:43:40.752Z,88.54
2022-09-23T18:46:13.435Z,88.36
2022-09-23T18:49:19.021Z,88.75
2022-09-23T18:51:50.979Z,88.47
2022-09-23T18:54:19.452Z,88.53
2022-09-23T18:56:47.767Z,88.55
2022-09-23T18:59:17.755Z,88.85
2022-09-23T19:01:45.934Z,88.74
2022-09-23T19:04:16.110Z,88.62
2022-09-23T19:06:42.783Z,88.61
2022-09-23T19:09:09.395Z,88.98
2022-09-23T19:11:36.573Z,89.03
2022-09-23T19:14:05.892Z,88.88
2022-09-23T19:16:34.182Z,89.14
2022-09-23T19:19:02.111Z,89.11
2022-09-23T19:21:30.877Z,89.11
2022-09-23T19:24:03.714Z,88.93
2022-09-23T19:26:34.296Z,89.15
2022-09-23T19:29:03.419Z,89.33
2022-09-23T19:31:33.487Z,89.22
2022-09-23T19:34:04.564Z,89.57
2022-09-23T19:36:34.614Z,89.21
2022-09-23T19:39:03.945Z,89.47
2022-09-23T19:41:32.164Z,89.55
2022-09-23T19:44:03.635Z,89.56
2022-09-23T19:46:32.046Z,89.74
2022-09-23T19:49:00.171Z,89.65
2022-09-23T19:51:27.550Z,89.34
2022-09-23T19:53:54.169Z,89.60
2022-09-23T19:56:20.684Z,89.54
2022-09-23T19:58:54.227Z,89.78
2022-09-23T20:01:21.935Z,89.49
2022-09-23T20:03:49.064Z,89.90
2022-09-23T20:06:16.652Z,89.84
2022-09-23T20:08:45.577Z,89.37
2022-09-23T20:11:15.000Z,90.02
2022-09-23T20:13:44.016Z,90.04
2022-09-23T20:16:13.919Z,89.99
2022-09-23T20:18:41.843Z,89.69
2022-09-23T20:21:11.947Z,89.99
2022-09-23T20:23:38.559Z,89.85
2022-09-23T20:26:24.540Z,89.67
2022-09-23T20:28:51.354Z,89.83
2022-09-23T20:31:20.790Z,89.80
2022-09-23T20:33:54.208Z,89.94
2022-09-23T20:36:21.605Z,89.74
2022-09-23T20:38:48.337Z,90.00
2022-09-23T20:41:17.221Z,89.97
2022-09-23T20:43:43.839Z,89.83
2022-09-23T20:46:10.356Z,90.06
2022-09-23T20:48:37.886Z,90.07
2022-09-23T20:51:06.847Z,89.95
2022-09-23T20:53:34.502Z,90.21
2022-09-23T20:56:01.527Z,90.08
2022-09-23T20:58:30.775Z,90.05
2022-09-23T21:01:05.603Z,89.94
2022-09-23T21:03:32.838Z,90.10
2022-09-23T21:06:06.932Z,90.23
2022-09-23T21:08:35.507Z,90.31
2022-09-23T21:11:04.955Z,90.39
2022-09-23T21:13:33.631Z,90.19
2022-09-23T21:16:05.589Z,90.36
2022-09-23T21:18:32.224Z,90.23
2022-09-23T21:21:00.855Z,90.22
2022-09-23T21:23:29.303Z,90.18
2022-09-23T21:26:07.477Z,90.32
2022-09-23T21:28:37.108Z,90.45
2022-09-23T21:31:06.972Z,90.45
2022-09-23T21:33:36.617Z,90.43
2022-09-23T21:36:05.652Z,90.58
2022-09-23T21:38:36.641Z,90.35
2022-09-23T21:41:06.668Z,90.27
2022-09-23T21:43:35.167Z,90.38
2022-09-23T21:46:05.112Z,90.09
2022-09-23T21:48:33.875Z,90.36
2022-09-23T21:51:04.570Z,90.18
2022-09-23T21:53:33.113Z,90.03
2022-09-23T21:56:03.570Z,90.42
2022-09-23T21:58:32.016Z,90.29
2022-09-23T22:00:58.873Z,90.16
2022-09-23T22:03:25.747Z,90.33
2022-09-23T22:06:03.809Z,90.33
2022-09-23T22:08:36.749Z,90.29
2022-09-23T22:11:05.682Z,90.28
2022-09-23T22:13:32.537Z,90.42
2022-09-23T22:16:02.218Z,90.42
2022-09-23T22:18:28.765Z,90.26
2022-09-23T22:20:57.795Z,90.26
2022-09-23T22:23:24.968Z,90.30
2022-09-23T22:26:02.122Z,90.27
2022-09-23T22:28:50.331Z,89.99
2022-09-23T22:31:35.589Z,90.12
2022-09-23T22:34:02.107Z,90.48
2022-09-23T22:36:28.599Z,90.57
2022-09-23T22:38:59.031Z,90.26
2022-09-23T22:41:26.279Z,90.41
2022-09-23T22:43:53.858Z,90.19
2022-09-23T22:46:22.745Z,90.45
2022-09-23T22:48:52.215Z,90.67
2022-09-23T22:51:22.224Z,90.23
2022-09-23T22:53:49.489Z,90.34
2022-09-23T22:56:16.197Z,90.24
2022-09-23T22:58:42.972Z,90.23
2022-09-23T23:01:11.803Z,90.51
2022-09-23T23:03:40.297Z,90.16
2022-09-23T23:06:08.808Z,90.12
2022-09-23T23:08:36.181Z,90.55
2022-09-23T23:11:09.957Z,90.14
2022-09-23T23:13:39.186Z,90.35
2022-09-23T23:16:07.187Z,90.27
2022-09-23T23:18:35.752Z,90.31
2022-09-23T23:21:08.798Z,90.45
2022-09-23T23:23:38.425Z,90.27
2022-09-23T23:26:09.821Z,90.33
2022-09-23T23:28:36.511Z,90.14
2022-09-23T23:31:04.795Z,90.08
2022-09-23T23:33:31.648Z,90.48
2022-09-23T23:35:58.125Z,90.49
2022-09-23T23:38:24.903Z,90.39
2022-09-23T23:40:52.599Z,90.32
2022-09-23T23:43:19.820Z,90.48
2022-09-23T23:45:46.596Z,90.53
2022-09-23T23:48:13.529Z,90.23
2022-09-23T23:50:40.074Z,90.16
2022-09-23T23:53:06.593Z,90.32
2022-09-23T23:55:38.126Z,90.52
2022-09-23T23:58:04.592Z,90.16
